createdAt,value
2019-05-29T00:01:49.359Z,50.31
2019-05-29T00:04:19.679Z,50.31
2019-05-29T00:06:49.994Z,50.23
2019-05-29T00:09:20.602Z,50.14
2019-05-29T00:11:51.869Z,50.12
2019-05-29T00:14:27.098Z,50.12
2019-05-29T00:16:54.035Z,50.12
2019-05-29T00:19:24.310Z,50.07
2019-05-29T00:21:54.571Z,50.07
2019-05-29T00:24:25.278Z,50.01
2019-05-29T00:26:55.687Z,50.03
2019-05-29T00:29:26.046Z,50.02
2019-05-29T00:31:56.375Z,50.02
2019-05-29T00:34:26.717Z,49.93
2019-05-29T00:36:56.974Z,49.91
2019-05-29T00:39:27.281Z,49.93
2019-05-29T00:41:57.598Z,49.87
2019-05-29T00:44:34.356Z,49.79
2019-05-29T00:47:01.084Z,49.80
2019-05-29T00:49:31.317Z,49.76
2019-05-29T00:52:01.578Z,49.74
2019-05-29T00:54:31.762Z,49.76
2019-05-29T00:57:01.986Z,49.77
2019-05-29T00:59:32.275Z,49.86
2019-05-29T01:02:02.520Z,49.88
2019-05-29T01:04:32.763Z,49.87
2019-05-29T01:07:03.145Z,49.87
2019-05-29T01:09:33.411Z,49.84
2019-05-29T01:12:03.680Z,49.78
2019-05-29T01:14:48.862Z,49.74
2019-05-29T01:17:05.900Z,49.68
2019-05-29T01:19:36.214Z,49.66
2019-05-29T01:22:06.510Z,49.65
2019-05-29T01:24:36.997Z,49.65
2019-05-29T01:27:07.253Z,49.60
2019-05-29T01:29:37.509Z,49.58
2019-05-29T01:32:07.617Z,49.59
2019-05-29T01:34:37.942Z,49.52
2019-05-29T01:37:08.382Z,49.51
2019-05-29T01:39:38.706Z,49.45
2019-05-29T01:42:08.988Z,49.44
2019-05-29T01:44:39.260Z,49.41
2019-05-29T01:47:09.526Z,49.39
2019-05-29T01:49:39.812Z,49.43
2019-05-29T01:52:10.114Z,49.45
2019-05-29T01:54:40.346Z,49.43
2019-05-29T01:57:10.622Z,49.39
2019-05-29T01:59:40.932Z,49.37
2019-05-29T02:02:11.191Z,49.31
2019-05-29T02:04:41.421Z,49.32
2019-05-29T02:07:11.646Z,49.30
2019-05-29T02:09:42.105Z,49.30
2019-05-29T02:12:12.276Z,49.31
2019-05-29T02:14:42.677Z,49.26
2019-05-29T02:17:12.917Z,49.32
2019-05-29T02:19:43.228Z,49.28
2019-05-29T02:22:13.570Z,49.20
2019-05-29T02:24:43.854Z,49.16
2019-05-29T02:27:14.152Z,49.12
2019-05-29T02:29:44.409Z,49.08
2019-05-29T02:32:14.619Z,49.03
2019-05-29T02:34:44.790Z,49.01
2019-05-29T02:37:14.984Z,49.00
2019-05-29T02:39:45.247Z,48.96
2019-05-29T02:42:15.506Z,48.96
2019-05-29T02:44:45.649Z,48.98
2019-05-29T02:47:15.858Z,48.98
2019-05-29T02:49:46.266Z,48.99
2019-05-29T02:52:16.484Z,48.99
2019-05-29T02:54:46.715Z,48.97
2019-05-29T02:57:16.825Z,49.03
2019-05-29T02:59:47.049Z,49.06
2019-05-29T03:02:17.275Z,49.09
2019-05-29T03:04:47.414Z,49.17
2019-05-29T03:07:17.545Z,49.27
2019-05-29T03:09:47.868Z,48.95
2019-05-29T03:12:18.265Z,48.58
2019-05-29T03:14:48.485Z,48.41
2019-05-29T03:17:18.762Z,48.39
2019-05-29T03:19:49.047Z,48.54
2019-05-29T03:22:19.369Z,48.80
2019-05-29T03:24:49.659Z,48.90
2019-05-29T03:27:19.919Z,48.93
2019-05-29T03:29:50.200Z,48.96
2019-05-29T03:32:20.472Z,48.97
2019-05-29T03:34:50.844Z,48.97
2019-05-29T03:37:21.092Z,49.00
2019-05-29T03:39:51.389Z,48.99
2019-05-29T03:42:21.631Z,49.02
2019-05-29T03:44:51.856Z,49.03
2019-05-29T03:47:22.148Z,49.04
2019-05-29T03:49:52.491Z,49.07
2019-05-29T03:52:22.687Z,49.07
2019-05-29T03:54:52.841Z,49.07
2019-05-29T03:57:23.170Z,49.07
2019-05-29T03:59:53.381Z,49.07
2019-05-29T04:02:23.678Z,49.09
2019-05-29T04:04:53.918Z,49.10
2019-05-29T04:07:24.159Z,49.11
2019-05-29T04:09:54.376Z,49.11
2019-05-29T04:12:24.694Z,49.13
2019-05-29T04:14:55.332Z,49.12
2019-05-29T04:17:25.976Z,49.15
2019-05-29T04:19:57.425Z,49.17
2019-05-29T04:22:32.910Z,49.18
2019-05-29T04:25:03.079Z,49.17
2019-05-29T04:27:34.271Z,49.17
2019-05-29T04:30:04.549Z,49.22
2019-05-29T04:32:36.393Z,49.18
2019-05-29T04:35:06.885Z,49.21
2019-05-29T04:37:39.477Z,49.19
2019-05-29T04:40:09.068Z,49.21
2019-05-29T04:42:40.086Z,49.18
2019-05-29T04:45:10.849Z,49.22
2019-05-29T04:47:41.249Z,49.22
2019-05-29T04:50:11.595Z,49.20
2019-05-29T04:52:41.766Z,49.23
2019-05-29T04:55:12.128Z,49.24
2019-05-29T04:57:42.368Z,49.26
2019-05-29T05:00:13.189Z,49.24
2019-05-29T05:02:43.436Z,49.24
2019-05-29T05:05:14.135Z,49.24
2019-05-29T05:07:44.381Z,49.24
2019-05-29T05:10:19.677Z,49.25
2019-05-29T05:12:49.952Z,49.23
2019-05-29T05:15:20.161Z,49.26
2019-05-29T05:17:50.503Z,49.31
2019-05-29T05:20:20.883Z,49.35
2019-05-29T05:22:51.247Z,49.35
2019-05-29T05:25:21.452Z,49.38
2019-05-29T05:27:51.670Z,49.35
2019-05-29T05:30:22.832Z,49.38
2019-05-29T05:32:53.107Z,49.42
2019-05-29T05:35:23.368Z,48.92
2019-05-29T05:37:53.793Z,48.93
2019-05-29T05:40:24.107Z,49.05
2019-05-29T05:42:54.404Z,49.18
2019-05-29T05:45:24.737Z,49.23
2019-05-29T05:47:57.825Z,49.25
2019-05-29T05:50:26.937Z,49.25
2019-05-29T05:52:57.235Z,49.25
2019-05-29T05:55:27.495Z,49.24
2019-05-29T05:57:57.708Z,49.25
2019-05-29T06:00:33.945Z,49.23
2019-05-29T06:03:04.272Z,49.24
2019-05-29T06:05:36.092Z,49.25
2019-05-29T06:08:06.677Z,49.23
2019-05-29T06:10:38.134Z,49.25
2019-05-29T06:13:08.423Z,49.23
2019-05-29T06:15:38.667Z,49.22
2019-05-29T06:18:20.699Z,49.26
2019-05-29T06:20:41.062Z,49.24
2019-05-29T06:23:11.265Z,49.21
2019-05-29T06:25:42.484Z,49.24
2019-05-29T06:28:13.488Z,49.21
2019-05-29T06:30:45.106Z,49.21
2019-05-29T06:33:15.363Z,49.21
2019-05-29T06:35:45.650Z,49.21
2019-05-29T06:38:15.889Z,49.17
2019-05-29T06:40:46.328Z,49.18
2019-05-29T06:43:23.567Z,49.18
2019-05-29T06:45:53.999Z,49.18
2019-05-29T06:48:41.294Z,49.16
2019-05-29T06:50:57.875Z,49.17
2019-05-29T06:53:28.273Z,49.17
2019-05-29T06:56:00.177Z,49.16
2019-05-29T06:58:31.891Z,49.16
2019-05-29T07:01:02.402Z,49.15
2019-05-29T07:03:32.648Z,49.14
2019-05-29T07:06:03.032Z,49.13
2019-05-29T07:08:39.124Z,49.15
2019-05-29T07:11:05.331Z,49.12
2019-05-29T07:13:37.706Z,49.12
2019-05-29T07:16:07.548Z,49.10
2019-05-29T07:18:38.597Z,49.10
2019-05-29T07:21:08.864Z,49.10
2019-05-29T07:23:41.237Z,49.09
2019-05-29T07:26:11.695Z,49.09
2019-05-29T07:29:02.026Z,49.06
2019-05-29T07:31:14.116Z,49.07
2019-05-29T07:33:45.262Z,49.08
2019-05-29T07:36:15.515Z,49.05
2019-05-29T07:38:56.170Z,49.04
2019-05-29T07:41:17.894Z,49.05
2019-05-29T07:43:48.243Z,49.04
2019-05-29T07:46:18.564Z,49.04
2019-05-29T07:48:50.409Z,49.05
2019-05-29T07:51:20.853Z,49.02
2019-05-29T07:53:52.102Z,48.99
2019-05-29T07:56:23.482Z,48.99
2019-05-29T07:59:02.725Z,49.01
2019-05-29T08:01:25.992Z,48.97
2019-05-29T08:03:56.271Z,48.97
2019-05-29T08:06:26.495Z,48.97
2019-05-29T08:08:56.772Z,48.95
2019-05-29T08:11:27.112Z,48.94
2019-05-29T08:13:57.351Z,48.92
2019-05-29T08:16:27.818Z,48.91
2019-05-29T08:18:58.165Z,48.90
2019-05-29T08:21:28.450Z,48.91
2019-05-29T08:23:58.730Z,48.88
2019-05-29T08:26:28.959Z,48.85
2019-05-29T08:28:59.487Z,48.88
2019-05-29T08:31:29.809Z,48.86
2019-05-29T08:34:00.106Z,48.86
2019-05-29T08:36:30.456Z,48.86
2019-05-29T08:39:00.721Z,48.87
2019-05-29T08:41:31.282Z,48.83
2019-05-29T08:44:01.557Z,48.85
2019-05-29T08:46:33.435Z,48.84
2019-05-29T08:49:03.856Z,48.83
2019-05-29T08:51:34.137Z,48.86
2019-05-29T08:54:21.020Z,48.85
2019-05-29T08:56:36.533Z,48.84
2019-05-29T08:59:06.901Z,48.85
2019-05-29T09:01:37.226Z,48.81
2019-05-29T09:04:07.415Z,48.81
2019-05-29T09:06:37.720Z,48.81
2019-05-29T09:09:08.563Z,48.83
2019-05-29T09:11:38.982Z,48.81
2019-05-29T09:14:09.169Z,48.83
2019-05-29T09:16:39.656Z,48.81
2019-05-29T09:19:10.446Z,48.81
2019-05-29T09:21:40.655Z,48.77
2019-05-29T09:24:12.857Z,48.79
2019-05-29T09:26:46.416Z,48.78
2019-05-29T09:29:19.995Z,48.77
2019-05-29T09:31:47.890Z,48.76
2019-05-29T09:34:18.812Z,48.76
2019-05-29T09:36:49.513Z,48.75
2019-05-29T09:39:20.995Z,48.78
2019-05-29T09:41:51.268Z,48.76
2019-05-29T09:44:33.868Z,48.75
2019-05-29T09:46:53.410Z,48.75
2019-05-29T09:49:23.959Z,48.74
2019-05-29T09:51:54.285Z,48.75
2019-05-29T09:54:24.633Z,48.74
2019-05-29T09:56:56.699Z,48.74
2019-05-29T09:59:27.128Z,48.71
2019-05-29T10:02:02.102Z,48.72
2019-05-29T10:04:29.414Z,48.69
2019-05-29T10:06:59.674Z,48.69
2019-05-29T10:09:30.043Z,48.69
2019-05-29T10:12:04.949Z,48.71
2019-05-29T10:14:32.415Z,48.69
2019-05-29T10:17:08.193Z,48.69
2019-05-29T10:19:35.561Z,48.69
2019-05-29T10:22:05.935Z,48.68
2019-05-29T10:24:37.290Z,48.67
2019-05-29T10:27:07.934Z,48.67
2019-05-29T10:29:38.249Z,48.67
2019-05-29T10:32:08.485Z,48.67
2019-05-29T10:34:38.634Z,48.65
2019-05-29T10:37:08.868Z,48.67
2019-05-29T10:39:39.177Z,48.69
2019-05-29T10:42:09.369Z,48.67
2019-05-29T10:44:39.637Z,48.69
2019-05-29T10:47:09.901Z,48.66
2019-05-29T10:49:40.257Z,48.66
2019-05-29T10:52:15.971Z,48.69
2019-05-29T10:54:42.548Z,48.67
2019-05-29T10:57:12.843Z,48.65
2019-05-29T10:59:43.097Z,48.66
2019-05-29T11:02:13.399Z,48.67
2019-05-29T11:04:47.584Z,48.67
2019-05-29T11:07:15.588Z,48.67
2019-05-29T11:09:46.912Z,48.67
2019-05-29T11:12:18.717Z,48.68
2019-05-29T11:14:49.098Z,48.67
2019-05-29T11:17:19.333Z,48.63
2019-05-29T11:19:49.528Z,48.67
2019-05-29T11:22:26.357Z,48.67
2019-05-29T11:24:52.360Z,48.65
2019-05-29T11:27:26.062Z,48.67
2019-05-29T11:29:55.189Z,48.66
2019-05-29T11:32:25.572Z,48.63
2019-05-29T11:34:55.777Z,48.61
2019-05-29T11:37:26.005Z,48.65
2019-05-29T11:39:56.828Z,48.63
2019-05-29T11:42:28.296Z,48.63
2019-05-29T11:44:59.583Z,48.62
2019-05-29T11:47:29.947Z,48.62
2019-05-29T11:50:10.202Z,48.60
2019-05-29T11:52:42.518Z,48.63
2019-05-29T11:55:07.939Z,48.61
2019-05-29T11:57:39.454Z,48.59
2019-05-29T12:00:18.977Z,48.62
2019-05-29T12:02:40.627Z,48.61
2019-05-29T12:05:11.034Z,48.62
2019-05-29T12:07:41.286Z,48.60
2019-05-29T12:10:11.930Z,48.60
2019-05-29T12:12:42.194Z,48.62
2019-05-29T12:15:15.550Z,48.60
2019-05-29T12:17:44.664Z,48.59
2019-05-29T12:20:27.244Z,48.60
2019-05-29T12:23:11.416Z,48.61
2019-05-29T12:25:18.773Z,48.59
2019-05-29T12:27:49.077Z,48.61
2019-05-29T12:30:19.415Z,48.60
2019-05-29T12:32:49.799Z,48.60
2019-05-29T12:35:20.047Z,48.63
2019-05-29T12:37:50.252Z,48.65
2019-05-29T12:40:20.509Z,48.73
2019-05-29T12:42:53.423Z,48.78
2019-05-29T12:45:23.888Z,48.86
2019-05-29T12:47:55.796Z,48.87
2019-05-29T12:50:26.284Z,48.92
2019-05-29T12:52:57.702Z,48.89
2019-05-29T12:55:28.082Z,48.89
2019-05-29T12:57:58.436Z,48.86
2019-05-29T13:00:29.183Z,48.88
2019-05-29T13:03:00.750Z,48.84
2019-05-29T13:05:32.323Z,48.80
2019-05-29T13:08:05.119Z,48.77
2019-05-29T13:10:35.434Z,48.73
2019-05-29T13:13:10.763Z,48.74
2019-05-29T13:15:37.953Z,48.73
2019-05-29T13:18:10.077Z,48.71
2019-05-29T13:20:40.258Z,48.71
2019-05-29T13:23:11.574Z,48.61
2019-05-29T13:25:41.924Z,48.56
2019-05-29T13:28:12.229Z,48.47
2019-05-29T13:30:42.499Z,48.62
2019-05-29T13:33:12.710Z,48.70
2019-05-29T13:35:47.127Z,48.71
2019-05-29T13:38:17.433Z,48.53
2019-05-29T13:40:47.694Z,48.66
2019-05-29T13:43:17.797Z,47.97
2019-05-29T13:45:47.890Z,48.11
2019-05-29T13:48:18.004Z,48.32
2019-05-29T13:50:48.945Z,48.48
2019-05-29T13:53:19.134Z,48.61
2019-05-29T13:55:49.247Z,48.67
2019-05-29T13:58:19.384Z,48.68
2019-05-29T14:00:49.574Z,48.72
2019-05-29T14:03:19.744Z,48.74
2019-05-29T14:05:49.938Z,48.75
2019-05-29T14:08:20.120Z,48.76
2019-05-29T14:10:51.523Z,48.77
2019-05-29T14:13:21.641Z,48.80
2019-05-29T14:15:51.766Z,48.81
2019-05-29T14:18:21.946Z,48.81
2019-05-29T14:20:52.136Z,48.81
2019-05-29T14:23:23.314Z,48.82
2019-05-29T14:25:54.530Z,48.83
2019-05-29T14:28:24.712Z,48.85
2019-05-29T14:30:54.855Z,48.86
2019-05-29T14:33:24.950Z,48.86
2019-05-29T14:35:55.077Z,48.90
2019-05-29T14:38:25.261Z,48.91
2019-05-29T14:40:55.357Z,48.88
2019-05-29T14:43:25.498Z,48.88
2019-05-29T14:45:55.606Z,48.88
2019-05-29T14:48:25.824Z,48.90
2019-05-29T14:50:56.026Z,48.90
2019-05-29T14:53:26.381Z,48.92
2019-05-29T14:55:56.506Z,48.91
2019-05-29T14:58:26.652Z,48.90
2019-05-29T15:00:56.901Z,48.91
2019-05-29T15:03:27.191Z,48.88
2019-05-29T15:05:57.454Z,48.91
2019-05-29T15:08:27.519Z,48.91
2019-05-29T15:10:57.637Z,48.91
2019-05-29T15:13:27.978Z,48.92
2019-05-29T15:15:58.116Z,48.92
2019-05-29T15:18:28.285Z,48.91
2019-05-29T15:20:58.410Z,48.91
2019-05-29T15:23:28.507Z,48.93
2019-05-29T15:25:58.668Z,48.91
2019-05-29T15:28:28.815Z,48.89
2019-05-29T15:30:59.000Z,48.95
2019-05-29T15:33:29.132Z,48.93
2019-05-29T15:35:59.234Z,48.42
2019-05-29T15:38:29.643Z,47.89
2019-05-29T15:40:59.789Z,47.59
2019-05-29T15:43:29.908Z,47.41
2019-05-29T15:46:00.074Z,47.24
2019-05-29T15:48:30.215Z,47.11
2019-05-29T15:51:00.339Z,47.32
2019-05-29T15:53:30.685Z,47.36
2019-05-29T15:56:16.979Z,47.40
2019-05-29T15:58:32.705Z,47.49
2019-05-29T16:01:02.880Z,47.54
2019-05-29T16:03:33.065Z,47.44
2019-05-29T16:06:03.432Z,47.50
2019-05-29T16:08:33.584Z,47.42
2019-05-29T16:11:03.694Z,47.47
2019-05-29T16:13:34.721Z,47.47
2019-05-29T16:16:04.838Z,47.52
2019-05-29T16:18:34.953Z,47.49
2019-05-29T16:21:05.099Z,47.42
2019-05-29T16:23:36.125Z,47.30
2019-05-29T16:26:06.367Z,47.47
2019-05-29T16:28:36.504Z,47.61
2019-05-29T16:31:06.752Z,47.74
2019-05-29T16:33:36.916Z,47.78
2019-05-29T16:36:07.034Z,47.80
2019-05-29T16:38:37.177Z,47.88
2019-05-29T16:41:07.297Z,47.90
2019-05-29T16:43:37.512Z,47.90
2019-05-29T16:46:07.631Z,47.91
2019-05-29T16:48:37.897Z,47.93
2019-05-29T16:51:08.044Z,47.94
2019-05-29T16:53:38.179Z,47.95
2019-05-29T16:56:08.315Z,47.92
2019-05-29T16:58:38.443Z,47.93
2019-05-29T17:01:08.564Z,47.97
2019-05-29T17:03:38.707Z,47.87
2019-05-29T17:06:08.827Z,47.51
2019-05-29T17:08:38.957Z,47.38
2019-05-29T17:11:09.151Z,47.28
2019-05-29T17:13:40.336Z,47.13
2019-05-29T17:16:10.443Z,47.26
2019-05-29T17:18:40.648Z,47.12
2019-05-29T17:21:10.823Z,46.99
2019-05-29T17:23:40.969Z,47.01
2019-05-29T17:26:11.464Z,47.07
2019-05-29T17:28:41.557Z,47.04
2019-05-29T17:31:11.782Z,47.04
2019-05-29T17:33:41.961Z,47.17
2019-05-29T17:36:12.185Z,47.07
2019-05-29T17:38:45.198Z,47.34
2019-05-29T17:41:15.341Z,47.71
2019-05-29T17:43:46.528Z,47.64
2019-05-29T17:46:17.472Z,47.44
2019-05-29T17:48:47.698Z,47.39
2019-05-29T17:51:17.916Z,47.00
2019-05-29T17:53:48.166Z,46.90
2019-05-29T17:56:31.986Z,46.60
2019-05-29T17:58:50.247Z,46.94
2019-05-29T18:01:20.548Z,47.38
2019-05-29T18:03:50.733Z,47.64
2019-05-29T18:06:20.980Z,47.11
2019-05-29T18:08:51.218Z,46.54
2019-05-29T18:11:21.459Z,46.48
2019-05-29T18:13:51.625Z,46.26
2019-05-29T18:16:23.541Z,46.14
2019-05-29T18:18:54.123Z,46.20
2019-05-29T18:21:25.758Z,46.38
2019-05-29T18:23:56.226Z,46.61
2019-05-29T18:26:42.648Z,46.69
2019-05-29T18:28:58.784Z,46.73
2019-05-29T18:31:29.470Z,46.93
2019-05-29T18:33:59.909Z,46.92
2019-05-29T18:36:31.394Z,46.90
2019-05-29T18:39:03.842Z,47.53
2019-05-29T18:41:34.402Z,47.81
2019-05-29T18:44:05.236Z,47.96
2019-05-29T18:46:38.058Z,48.01
2019-05-29T18:49:07.959Z,48.15
2019-05-29T18:51:38.456Z,48.17
2019-05-29T18:54:08.912Z,48.21
2019-05-29T18:56:42.118Z,48.23
2019-05-29T18:59:12.341Z,48.26
2019-05-29T19:01:42.904Z,48.31
2019-05-29T19:04:13.370Z,48.41
2019-05-29T19:06:45.168Z,48.44
2019-05-29T19:09:15.608Z,48.49
2019-05-29T19:11:45.964Z,48.53
2019-05-29T19:14:16.198Z,48.49
2019-05-29T19:16:46.738Z,48.54
2019-05-29T19:19:16.995Z,48.58
2019-05-29T19:21:47.393Z,48.66
2019-05-29T19:24:17.727Z,48.63
2019-05-29T19:26:47.989Z,48.70
2019-05-29T19:29:18.369Z,48.76
2019-05-29T19:31:49.336Z,48.83
2019-05-29T19:34:19.570Z,48.87
2019-05-29T19:36:49.848Z,48.95
2019-05-29T19:39:20.065Z,48.98
2019-05-29T19:41:50.321Z,49.06
2019-05-29T19:44:21.528Z,49.11
2019-05-29T19:46:54.105Z,49.14
2019-05-29T19:49:25.419Z,48.73
2019-05-29T19:51:56.074Z,48.74
2019-05-29T19:54:27.463Z,48.89
2019-05-29T19:56:57.946Z,48.97
2019-05-29T19:59:28.229Z,49.07
2019-05-29T20:01:58.411Z,49.08
2019-05-29T20:04:30.550Z,49.14
2019-05-29T20:07:00.759Z,49.19
2019-05-29T20:09:31.279Z,49.23
2019-05-29T20:12:01.575Z,49.31
2019-05-29T20:14:32.063Z,49.33
2019-05-29T20:17:02.344Z,49.37
2019-05-29T20:19:35.829Z,49.40
2019-05-29T20:22:04.649Z,49.43
2019-05-29T20:24:35.017Z,49.47
2019-05-29T20:27:05.301Z,49.51
2019-05-29T20:29:36.431Z,49.53
2019-05-29T20:32:07.924Z,49.56
2019-05-29T20:34:39.010Z,49.55
2019-05-29T20:37:09.401Z,48.58
2019-05-29T20:39:39.629Z,48.30
2019-05-29T20:42:12.115Z,48.64
2019-05-29T20:44:43.046Z,48.91
2019-05-29T20:47:13.420Z,49.06
2019-05-29T20:49:47.321Z,49.13
2019-05-29T20:52:15.586Z,49.15
2019-05-29T20:54:45.790Z,49.21
2019-05-29T20:57:15.965Z,49.27
2019-05-29T20:59:46.179Z,49.32
2019-05-29T21:02:16.360Z,49.40
2019-05-29T21:04:46.475Z,49.42
2019-05-29T21:07:16.588Z,49.48
2019-05-29T21:09:46.712Z,49.51
2019-05-29T21:12:16.901Z,49.54
2019-05-29T21:14:47.013Z,49.54
2019-05-29T21:17:18.173Z,49.58
2019-05-29T21:19:48.418Z,49.57
2019-05-29T21:22:18.528Z,49.58
2019-05-29T21:24:59.965Z,49.61
2019-05-29T21:27:20.544Z,49.59
2019-05-29T21:29:50.650Z,49.62
2019-05-29T21:32:20.844Z,49.63
2019-05-29T21:34:51.031Z,49.66
2019-05-29T21:37:21.164Z,49.66
2019-05-29T21:39:51.266Z,49.65
2019-05-29T21:42:21.404Z,49.66
2019-05-29T21:44:51.550Z,49.67
2019-05-29T21:47:21.693Z,49.66
2019-05-29T21:49:51.860Z,49.68
2019-05-29T21:52:22.034Z,49.71
2019-05-29T21:54:52.168Z,49.71
2019-05-29T21:57:22.322Z,49.72
2019-05-29T21:59:52.500Z,49.73
2019-05-29T22:02:23.004Z,49.74
2019-05-29T22:04:53.185Z,49.75
2019-05-29T22:07:23.315Z,49.83
2019-05-29T22:09:54.568Z,49.90
2019-05-29T22:12:24.658Z,50.04
2019-05-29T22:14:55.174Z,50.25
2019-05-29T22:17:25.345Z,50.50
2019-05-29T22:19:55.495Z,50.66
2019-05-29T22:22:25.597Z,50.72
2019-05-29T22:24:55.729Z,50.90
2019-05-29T22:27:26.843Z,51.04
2019-05-29T22:29:57.402Z,51.12
2019-05-29T22:32:28.712Z,51.17
2019-05-29T22:34:59.599Z,51.27
2019-05-29T22:37:29.903Z,51.35
2019-05-29T22:40:00.171Z,51.36
2019-05-29T22:42:30.454Z,51.39
2019-05-29T22:45:02.106Z,51.45
2019-05-29T22:47:32.577Z,51.48
2019-05-29T22:50:06.333Z,51.50
2019-05-29T22:52:36.687Z,51.46
2019-05-29T22:55:07.022Z,51.47
2019-05-29T22:57:37.259Z,51.52
2019-05-29T23:00:08.168Z,51.50
2019-05-29T23:02:38.420Z,51.49
2019-05-29T23:05:08.737Z,51.51
2019-05-29T23:07:39.037Z,51.56
2019-05-29T23:10:09.384Z,51.58
2019-05-29T23:12:39.681Z,51.63
2019-05-29T23:15:10.077Z,51.62
2019-05-29T23:17:40.365Z,51.59
2019-05-29T23:20:10.676Z,51.65
2019-05-29T23:22:40.896Z,51.66
2019-05-29T23:25:11.194Z,51.63
2019-05-29T23:27:41.349Z,51.70
2019-05-29T23:30:12.749Z,51.72
2019-05-29T23:32:42.911Z,51.71
2019-05-29T23:35:13.129Z,51.65
2019-05-29T23:37:43.415Z,51.70
2019-05-29T23:40:13.653Z,51.78
2019-05-29T23:42:43.988Z,51.80
2019-05-29T23:45:14.280Z,51.82
2019-05-29T23:47:44.628Z,51.86
2019-05-29T23:50:15.026Z,51.87
2019-05-29T23:52:45.197Z,51.90
2019-05-29T23:55:15.419Z,51.94
2019-05-29T23:57:45.818Z,51.98
